De Xin Hai — BQBP — position and weather

sailwx.info

Track history (hours):
 
Tides and Currents Weather Stations Pressure Air Temp Water Temp Dewpoint Dewpoint Depression Visibility Wind Speed Wind Dir Waves Ship Positions

De Xin Hai

Last reported at 2015-Aug-27 00:30 UTC. Time now 2015-Aug-28 22:17 UTC.
Position N 37°55' W 076°11'.

Length 225 m; draft 6.9 m.

Type: Cargo ship. MMSI: 367344200.

Date/timePositionNaut miles runAvg speedWind from/ knotsBaromVisibWave heightAir tempDewpointWater temp
2015-Aug-27 00:30N 37°55' W 076°11'1211.9
2015-Aug-26 23:30N 38°07' W 076°14'4412.8
2015-Aug-26 20:05N 38°50' W 076°24'712.8
2015-Aug-26 19:33N 38°57' W 076°23'1211.9
2015-Aug-26 18:33N 39°08' W 076°24'10 9.9
2015-Aug-26 17:33N 39°15' W 076°34'0 0.3
2015-Aug-26 16:33N 39°15' W 076°34'0 0.0
2015-Aug-26 15:30N 39°15' W 076°34'0 0.0
2015-Aug-26 14:33N 39°15' W 076°34'0 0.0
2015-Aug-26 13:33N 39°15' W 076°34'0 0.0
2015-Aug-26 12:33N 39°15' W 076°34'0 0.0
2015-Aug-26 11:33N 39°15' W 076°34'0 0.0
2015-Aug-26 10:33N 39°15' W 076°34'0 0.0
2015-Aug-26 09:33N 39°15' W 076°34'0 0.0
2015-Aug-26 08:33N 39°15' W 076°34'0 0.0
2015-Aug-26 07:33N 39°15' W 076°34'0 0.0
2015-Aug-26 06:33N 39°15' W 076°34'0 0.0
2015-Aug-26 05:33N 39°15' W 076°34'0 0.0
2015-Aug-26 04:33N 39°15' W 076°34'0 0.0
2015-Aug-26 03:33N 39°15' W 076°34'0 0.0
2015-Aug-26 02:33N 39°15' W 076°34'1 0.7
2015-Aug-26 01:33N 39°15' W 076°34'7 7.2
2015-Aug-26 00:33N 39°11' W 076°26'1211.6
2015-Aug-25 23:33N 38°59' W 076°23'1212.5
2015-Aug-25 22:33N 38°47' W 076°25'3712.2
2015-Aug-25 19:30N 38°11' W 076°14'1312.0
2015-Aug-25 18:28N 37°58' W 076°12'76 9.6
2015-Aug-25 10:33N 36°49' W 075°33'2210.7
2015-Aug-25 08:28N 36°48' W 075°05'1112.3
2015-Aug-25 07:33N 36°48' W 074°51'2612.5
2015-Aug-25 05:29N 36°47' W 074°18'1212.7
2015-Aug-25 04:31N 36°47' W 074°03'5312.5
2015-Aug-25 00:17N 36°46' W 072°57'  
2015-Aug-17 22:23N 36°12' W 027°57'1212.8
2015-Aug-17 21:25N 36°11' W 027°42'1213.1
2015-Aug-17 20:28N 36°11' W 027°26'1413.1
2015-Aug-17 19:26N 36°11' W 027°09'3812.9
2015-Aug-17 16:30N 36°10' W 026°23'1413.2
2015-Aug-17 15:28N 36°10' W 026°06'1213.5
2015-Aug-17 14:33N 36°10' W 025°50'1313.2
2015-Aug-17 13:33N 36°09' W 025°34'1313.1
2015-Aug-17 12:33N 36°09' W 025°18'1313.1
2015-Aug-17 11:33N 36°09' W 025°02'1313.5
2015-Aug-17 10:34N 36°09' W 024°45'1413.6
2015-Aug-17 09:33N 36°09' W 024°28'1313.3
2015-Aug-17 08:34N 36°09' W 024°12'1313.4
2015-Aug-17 07:34N 36°08' W 023°55'1413.4
2015-Aug-17 06:33N 36°08' W 023°38'1313.0
2015-Aug-17 05:33N 36°08' W 023°22'1313.3
2015-Aug-17 04:34N 36°08' W 023°06'1313.1
2015-Aug-17 03:33N 36°08' W 022°50'1313.0
2015-Aug-17 02:33N 36°07' W 022°33'1312.8
2015-Aug-17 01:30N 36°07' W 022°17'1212.6
2015-Aug-17 00:34N 36°07' W 022°02'  
Track history (hours):
 
Tides and Currents Weather Stations Pressure Air Temp Water Temp Dewpoint Dewpoint Depression Visibility Wind Speed Wind Dir Waves Ship Positions

De Xin Hai

Last reported at 2015-Aug-27 00:30 UTC. Time now 2015-Aug-28 22:17 UTC.
Position N 37°55' W 076°11'.

Length 225 m; draft 6.9 m.

Type: Cargo ship. MMSI: 367344200.

Date/timePositionNaut miles runAvg speedWind from/ knotsBaromVisibWave heightAir tempDewpointWater temp
2015-Aug-27 00:30N 37°55' W 076°11'1211.9
2015-Aug-26 23:30N 38°07' W 076°14'4412.8
2015-Aug-26 20:05N 38°50' W 076°24'712.8
2015-Aug-26 19:33N 38°57' W 076°23'1211.9
2015-Aug-26 18:33N 39°08' W 076°24'10 9.9
2015-Aug-26 17:33N 39°15' W 076°34'0 0.3
2015-Aug-26 16:33N 39°15' W 076°34'0 0.0
2015-Aug-26 15:30N 39°15' W 076°34'0 0.0
2015-Aug-26 14:33N 39°15' W 076°34'0 0.0
2015-Aug-26 13:33N 39°15' W 076°34'0 0.0
2015-Aug-26 12:33N 39°15' W 076°34'0 0.0
2015-Aug-26 11:33N 39°15' W 076°34'0 0.0
2015-Aug-26 10:33N 39°15' W 076°34'0 0.0
2015-Aug-26 09:33N 39°15' W 076°34'0 0.0
2015-Aug-26 08:33N 39°15' W 076°34'0 0.0
2015-Aug-26 07:33N 39°15' W 076°34'0 0.0
2015-Aug-26 06:33N 39°15' W 076°34'0 0.0
2015-Aug-26 05:33N 39°15' W 076°34'0 0.0
2015-Aug-26 04:33N 39°15' W 076°34'0 0.0
2015-Aug-26 03:33N 39°15' W 076°34'0 0.0
2015-Aug-26 02:33N 39°15' W 076°34'1 0.7
2015-Aug-26 01:33N 39°15' W 076°34'7 7.2
2015-Aug-26 00:33N 39°11' W 076°26'1211.6
2015-Aug-25 23:33N 38°59' W 076°23'1212.5
2015-Aug-25 22:33N 38°47' W 076°25'3712.2
2015-Aug-25 19:30N 38°11' W 076°14'1312.0
2015-Aug-25 18:28N 37°58' W 076°12'76 9.6
2015-Aug-25 10:33N 36°49' W 075°33'2210.7
2015-Aug-25 08:28N 36°48' W 075°05'1112.3
2015-Aug-25 07:33N 36°48' W 074°51'2612.5
2015-Aug-25 05:29N 36°47' W 074°18'1212.7
2015-Aug-25 04:31N 36°47' W 074°03'5312.5
2015-Aug-25 00:17N 36°46' W 072°57'  
2015-Aug-17 22:23N 36°12' W 027°57'1212.8
2015-Aug-17 21:25N 36°11' W 027°42'1213.1
2015-Aug-17 20:28N 36°11' W 027°26'1413.1
2015-Aug-17 19:26N 36°11' W 027°09'3812.9
2015-Aug-17 16:30N 36°10' W 026°23'1413.2
2015-Aug-17 15:28N 36°10' W 026°06'1213.5
2015-Aug-17 14:33N 36°10' W 025°50'1313.2
2015-Aug-17 13:33N 36°09' W 025°34'1313.1
2015-Aug-17 12:33N 36°09' W 025°18'1313.1
2015-Aug-17 11:33N 36°09' W 025°02'1313.5
2015-Aug-17 10:34N 36°09' W 024°45'1413.6
2015-Aug-17 09:33N 36°09' W 024°28'1313.3
2015-Aug-17 08:34N 36°09' W 024°12'1313.4
2015-Aug-17 07:34N 36°08' W 023°55'1413.4
2015-Aug-17 06:33N 36°08' W 023°38'1313.0
2015-Aug-17 05:33N 36°08' W 023°22'1313.3
2015-Aug-17 04:34N 36°08' W 023°06'1313.1
2015-Aug-17 03:33N 36°08' W 022°50'1313.0
2015-Aug-17 02:33N 36°07' W 022°33'1312.8
2015-Aug-17 01:30N 36°07' W 022°17'1212.6
2015-Aug-17 00:34N 36°07' W 022°02'  

Dump ship's entire track history